createdAt,value
2022-10-15T00:01:38.883Z,95459.00
2022-10-15T00:04:07.187Z,95457.25
2022-10-15T00:06:35.834Z,95460.06
2022-10-15T00:09:05.673Z,95461.16
2022-10-15T00:11:33.941Z,95425.34
2022-10-15T00:14:02.296Z,95304.47
2022-10-15T00:16:31.358Z,95374.28
2022-10-15T00:19:01.296Z,95451.63
2022-10-15T00:21:29.720Z,95461.72
2022-10-15T00:23:58.370Z,95456.50
2022-10-15T00:26:30.026Z,95457.97
2022-10-15T00:29:00.338Z,95452.88
2022-10-15T00:31:30.956Z,95459.59
2022-10-15T00:34:01.693Z,95460.75
2022-10-15T00:36:31.944Z,95469.47
2022-10-15T00:39:01.229Z,95461.47
2022-10-15T00:41:32.937Z,95463.56
2022-10-15T00:44:03.008Z,95468.41
2022-10-15T00:46:34.668Z,95378.03
2022-10-15T00:49:07.128Z,95468.69
2022-10-15T00:51:41.276Z,95485.63
2022-10-15T00:54:11.201Z,95412.38
2022-10-15T00:56:42.808Z,95458.88
2022-10-15T00:59:13.290Z,95451.41
2022-10-15T01:01:42.109Z,95465.44
2022-10-15T01:04:10.647Z,95460.66
2022-10-15T01:06:39.434Z,95409.28
2022-10-15T01:09:07.977Z,95464.13
2022-10-15T01:11:43.807Z,95468.06
2022-10-15T01:14:24.755Z,95471.19
2022-10-15T01:16:58.533Z,95466.31
2022-10-15T01:20:05.797Z,95471.81
2022-10-15T01:22:48.335Z,95339.16
2022-10-15T01:25:31.071Z,95465.66
2022-10-15T01:28:13.288Z,95400.63
2022-10-15T01:30:46.943Z,95469.41
2022-10-15T01:33:31.027Z,95255.09
2022-10-15T01:36:07.414Z,95459.41
2022-10-15T01:38:47.857Z,95456.38
2022-10-15T01:41:22.124Z,95469.53
2022-10-15T01:43:58.982Z,95468.88
2022-10-15T01:46:36.201Z,95474.31
2022-10-15T01:49:06.080Z,95471.44
2022-10-15T01:51:38.060Z,95473.50
2022-10-15T01:54:08.439Z,95467.06
2022-10-15T01:56:38.864Z,95471.50
2022-10-15T01:59:08.828Z,95472.34
2022-10-15T02:01:38.529Z,95471.53
2022-10-15T02:04:20.929Z,95471.06
2022-10-15T02:06:54.415Z,95415.78
2022-10-15T02:09:36.473Z,95268.47
2022-10-15T02:12:16.460Z,95337.16
2022-10-15T02:14:51.264Z,95458.94
2022-10-15T02:17:26.208Z,95458.44
2022-10-15T02:22:36.696Z,95453.56
2022-10-15T02:25:09.257Z,95454.31
2022-10-15T02:27:39.422Z,95450.47
2022-10-15T02:30:10.637Z,95459.22
2022-10-15T02:32:42.845Z,95462.22
2022-10-15T02:35:13.078Z,95461.53
2022-10-15T02:37:48.878Z,95457.59
2022-10-15T02:40:17.486Z,95388.28
2022-10-15T02:42:45.784Z,95458.38
2022-10-15T02:45:14.049Z,95463.78
2022-10-15T02:47:43.759Z,95442.84
2022-10-15T02:50:12.049Z,95469.09
2022-10-15T02:52:40.321Z,95464.59
2022-10-15T02:55:09.301Z,95454.09
2022-10-15T02:57:37.585Z,95467.75
2022-10-15T03:00:06.942Z,95470.19
2022-10-15T03:02:35.222Z,95457.78
2022-10-15T03:05:05.203Z,95462.00
2022-10-15T03:07:33.468Z,95467.38
2022-10-15T03:10:01.792Z,95472.22
2022-10-15T03:12:30.001Z,95470.22
2022-10-15T03:14:58.356Z,95473.50
2022-10-15T03:17:26.989Z,95444.03
2022-10-15T03:19:55.380Z,95475.41
2022-10-15T03:22:25.042Z,95475.72
2022-10-15T03:24:53.388Z,95437.53
2022-10-15T03:27:21.862Z,95468.19
2022-10-15T03:29:50.301Z,95478.75
2022-10-15T03:32:18.648Z,95476.50
2022-10-15T03:34:46.883Z,95470.47
2022-10-15T03:37:15.156Z,95468.91
2022-10-15T03:39:44.848Z,95467.91
2022-10-15T03:42:13.215Z,95476.56
2022-10-15T03:44:41.529Z,95471.63
2022-10-15T03:47:09.870Z,95470.09
2022-10-15T03:49:38.180Z,95468.41
2022-10-15T03:52:06.440Z,95471.69
2022-10-15T03:54:34.732Z,95469.28
2022-10-15T03:57:04.505Z,95471.44
2022-10-15T03:59:32.881Z,95474.72
2022-10-15T04:02:01.348Z,95467.69
2022-10-15T04:04:29.637Z,95466.22
2022-10-15T04:06:57.870Z,95466.19
2022-10-15T04:09:26.175Z,95460.81
2022-10-15T04:11:54.437Z,95454.38
2022-10-15T04:14:24.086Z,95439.09
2022-10-15T04:16:52.288Z,95450.75
2022-10-15T04:19:20.671Z,95453.66
2022-10-15T04:21:48.963Z,95457.75
2022-10-15T04:24:17.208Z,95431.38
2022-10-15T04:26:45.684Z,95403.31
2022-10-15T04:29:14.093Z,95454.94
2022-10-15T04:31:43.810Z,95461.66
2022-10-15T04:34:12.560Z,95446.28
2022-10-15T04:36:40.917Z,95452.06
2022-10-15T04:39:12.183Z,95451.66
2022-10-15T04:41:42.798Z,95445.59
2022-10-15T04:44:11.052Z,95453.09
2022-10-15T04:46:39.409Z,95416.69
2022-10-15T04:49:09.343Z,95445.81
2022-10-15T04:51:37.732Z,95306.09
2022-10-15T04:54:06.070Z,95448.91
2022-10-15T04:56:34.378Z,95441.56
2022-10-15T04:59:02.671Z,95464.44
2022-10-15T05:01:30.927Z,95466.19
2022-10-15T05:03:59.348Z,95467.09
2022-10-15T05:06:29.077Z,95468.00
2022-10-15T05:08:57.462Z,95453.94
2022-10-15T05:11:27.772Z,95461.09
2022-10-15T05:13:57.613Z,95462.91
2022-10-15T05:16:27.398Z,95402.22
2022-10-15T05:18:58.717Z,95454.53
2022-10-15T05:21:28.425Z,95473.25
2022-10-15T05:23:56.859Z,95474.97
2022-10-15T05:26:26.547Z,95469.00
2022-10-15T05:28:55.200Z,95466.84
2022-10-15T05:31:24.968Z,95468.63
2022-10-15T05:33:54.681Z,95471.81
2022-10-15T05:36:25.082Z,95480.38
2022-10-15T05:38:56.236Z,95477.81
2022-10-15T05:41:25.735Z,95475.53
2022-10-15T05:43:55.836Z,95475.31
2022-10-15T05:46:24.555Z,95478.75
2022-10-15T05:48:53.961Z,95486.75
2022-10-15T05:51:22.880Z,95488.47
2022-10-15T05:53:54.955Z,95487.59
2022-10-15T05:56:23.443Z,95481.47
2022-10-15T05:58:52.368Z,95484.09
2022-10-15T06:01:21.224Z,95487.09
2022-10-15T06:03:49.541Z,95499.28
2022-10-15T06:06:20.068Z,95493.38
2022-10-15T06:08:48.969Z,95499.75
2022-10-15T06:11:19.404Z,95499.75
2022-10-15T06:13:48.498Z,95504.38
2022-10-15T06:16:22.592Z,95498.72
2022-10-15T06:18:53.335Z,95507.66
2022-10-15T06:21:21.787Z,95508.97
2022-10-15T06:23:50.076Z,95512.94
2022-10-15T06:26:19.786Z,95508.88
2022-10-15T06:28:49.284Z,95521.31
2022-10-15T06:31:17.552Z,95514.81
2022-10-15T06:33:45.796Z,95522.47
2022-10-15T06:36:14.858Z,95527.28
2022-10-15T06:38:44.416Z,95526.97
2022-10-15T06:41:12.905Z,95491.50
2022-10-15T06:43:42.742Z,95522.81
2022-10-15T06:46:11.286Z,95518.50
2022-10-15T06:48:39.604Z,95510.59
2022-10-15T06:51:07.879Z,95497.03
2022-10-15T06:53:36.264Z,95514.03
2022-10-15T06:56:05.988Z,95513.34
2022-10-15T06:58:34.270Z,95514.75
2022-10-15T07:01:05.366Z,95510.97
2022-10-15T07:03:33.961Z,95508.59
2022-10-15T07:06:03.945Z,95498.94
2022-10-15T07:08:32.257Z,95458.97
2022-10-15T07:11:02.752Z,95518.06
2022-10-15T07:13:31.711Z,95522.00
2022-10-15T07:16:06.929Z,95510.56
2022-10-15T07:18:36.131Z,95528.09
2022-10-15T07:21:05.215Z,95519.06
2022-10-15T07:23:33.846Z,95507.38
2022-10-15T07:26:02.515Z,95524.81
2022-10-15T07:28:30.856Z,95505.97
2022-10-15T07:31:02.937Z,95532.69
2022-10-15T07:33:34.446Z,95531.97
2022-10-15T07:36:05.246Z,95466.31
2022-10-15T07:38:33.609Z,95519.34
2022-10-15T07:41:02.873Z,95526.19
2022-10-15T07:43:31.356Z,95519.03
2022-10-15T07:45:59.642Z,95529.16
2022-10-15T07:48:28.002Z,95524.66
2022-10-15T07:50:58.136Z,95531.50
2022-10-15T07:53:26.550Z,95522.34
2022-10-15T07:55:54.870Z,95511.31
2022-10-15T07:58:23.076Z,95515.16
2022-10-15T08:00:51.357Z,95523.22
2022-10-15T08:03:19.634Z,95512.44
2022-10-15T08:05:48.280Z,95533.34
2022-10-15T08:08:18.121Z,95524.91
2022-10-15T08:10:46.414Z,95531.59
2022-10-15T08:13:14.906Z,95525.66
2022-10-15T08:15:43.722Z,95527.38
2022-10-15T08:18:12.093Z,95533.41
2022-10-15T08:20:41.050Z,95533.88
2022-10-15T08:23:16.315Z,95529.78
2022-10-15T08:25:46.096Z,95475.91
2022-10-15T08:28:14.584Z,95530.88
2022-10-15T08:30:42.877Z,95533.22
2022-10-15T08:33:11.227Z,95476.00
2022-10-15T08:35:43.642Z,95530.25
2022-10-15T08:38:14.842Z,95528.94
2022-10-15T08:40:50.115Z,95522.69
2022-10-15T08:43:24.436Z,95477.28
2022-10-15T08:45:55.699Z,95510.34
2022-10-15T08:48:30.618Z,95519.72
2022-10-15T08:51:04.016Z,95509.69
2022-10-15T08:53:39.818Z,95403.41
2022-10-15T08:56:17.289Z,95519.22
2022-10-15T08:58:53.573Z,95524.81
2022-10-15T09:01:29.272Z,95515.00
2022-10-15T09:04:08.286Z,95528.78
2022-10-15T09:06:38.994Z,95526.09
2022-10-15T09:09:14.400Z,95519.09
2022-10-15T09:11:55.547Z,95521.13
2022-10-15T09:14:27.676Z,95528.09
2022-10-15T09:16:55.997Z,95529.13
2022-10-15T09:19:27.795Z,95522.16
2022-10-15T09:21:56.871Z,95528.28
2022-10-15T09:24:27.502Z,95531.22
2022-10-15T09:27:08.010Z,95532.22
2022-10-15T09:29:43.222Z,95531.78
2022-10-15T09:32:19.743Z,95526.84
2022-10-15T09:34:54.581Z,95488.81
2022-10-15T09:37:29.995Z,95381.31
2022-10-15T09:40:21.839Z,95488.78
2022-10-15T09:42:54.897Z,95518.09
2022-10-15T09:45:24.770Z,95521.59
2022-10-15T09:48:00.431Z,95517.19
2022-10-15T09:50:40.947Z,95508.53
2022-10-15T09:53:22.250Z,95492.22
2022-10-15T09:56:02.296Z,95506.19
2022-10-15T09:58:38.777Z,95500.22
2022-10-15T10:01:08.193Z,95501.94
2022-10-15T10:03:38.101Z,95486.28
2022-10-15T10:06:09.455Z,95480.66
2022-10-15T10:08:40.553Z,95491.59
2022-10-15T10:11:11.360Z,95464.75
2022-10-15T10:13:46.190Z,95477.69
2022-10-15T10:16:17.347Z,95472.50
2022-10-15T10:18:51.044Z,95467.25
2022-10-15T10:21:27.817Z,95465.75
2022-10-15T10:23:56.063Z,95465.44
2022-10-15T10:26:24.350Z,95458.34
2022-10-15T10:29:04.654Z,95459.53
2022-10-15T10:31:42.967Z,95470.34
2022-10-15T10:34:17.645Z,95446.09
2022-10-15T10:36:51.487Z,95453.00
2022-10-15T10:39:26.689Z,95459.50
2022-10-15T10:41:57.183Z,95455.13
2022-10-15T10:44:34.932Z,95445.56
2022-10-15T10:47:10.371Z,95449.38
2022-10-15T10:49:41.145Z,95437.50
2022-10-15T10:52:21.286Z,95440.13
2022-10-15T10:54:55.659Z,95430.06
2022-10-15T10:57:33.878Z,95433.84
2022-10-15T11:00:08.790Z,95432.03
2022-10-15T11:02:41.614Z,95423.53
2022-10-15T11:05:10.789Z,95425.53
2022-10-15T11:07:48.781Z,95416.16
2022-10-15T11:10:23.850Z,95418.25
2022-10-15T11:13:04.183Z,95424.91
2022-10-15T11:15:45.778Z,95425.63
2022-10-15T11:18:32.935Z,95419.84
2022-10-15T11:21:12.409Z,95425.53
2022-10-15T11:23:56.806Z,95422.91
2022-10-15T11:26:51.922Z,95409.59
2022-10-15T11:29:37.203Z,95394.56
2022-10-15T11:32:24.683Z,95406.34
2022-10-15T11:35:24.160Z,95405.09
2022-10-15T11:38:13.990Z,95400.72
2022-10-15T11:40:53.906Z,95400.69
2022-10-15T11:43:38.830Z,95394.19
2022-10-15T11:46:15.406Z,95400.78
2022-10-15T11:48:59.869Z,95390.53
2022-10-15T11:51:34.831Z,95399.28
2022-10-15T11:54:28.559Z,95389.34
2022-10-15T11:56:59.913Z,95399.63
2022-10-15T11:59:37.458Z,95376.38
2022-10-15T12:02:14.006Z,95377.22
2022-10-15T12:04:48.029Z,95395.06
2022-10-15T12:07:21.591Z,95392.16
2022-10-15T12:09:54.694Z,95390.22
2022-10-15T12:12:35.103Z,95389.06
2022-10-15T12:15:16.190Z,95398.19
2022-10-15T12:17:53.130Z,95384.41
2022-10-15T12:20:24.593Z,95404.44
2022-10-15T12:22:59.024Z,95398.97
2022-10-15T12:25:45.801Z,95404.94
2022-10-15T12:28:20.356Z,95393.81
2022-10-15T12:31:02.863Z,95411.53
2022-10-15T12:33:37.833Z,95400.97
2022-10-15T12:36:22.007Z,95406.31
2022-10-15T12:38:58.263Z,95394.75
2022-10-15T12:41:38.211Z,95407.31
2022-10-15T12:44:08.674Z,95402.97
2022-10-15T12:46:39.612Z,95393.28
2022-10-15T12:49:41.318Z,95395.84
2022-10-15T12:52:42.452Z,95395.00
2022-10-15T12:55:36.174Z,95389.00
2022-10-15T12:58:07.456Z,95404.63
2022-10-15T13:00:38.868Z,95413.59
2022-10-15T13:03:24.692Z,95405.59
2022-10-15T13:05:55.358Z,95407.00
2022-10-15T13:08:25.904Z,95356.50
2022-10-15T13:10:58.419Z,95406.72
2022-10-15T13:13:30.158Z,95334.06
2022-10-15T13:16:01.144Z,95408.50
2022-10-15T13:18:31.612Z,95395.00
2022-10-15T13:23:35.195Z,95342.47
2022-10-15T13:26:19.928Z,95383.22
2022-10-15T13:28:49.223Z,95405.31
2022-10-15T13:31:27.567Z,95399.06
2022-10-15T13:34:04.101Z,95408.50
2022-10-15T13:36:35.009Z,95404.22
2022-10-15T13:39:07.109Z,95409.25
2022-10-15T13:41:40.490Z,95417.66
2022-10-15T13:44:20.765Z,95418.41
2022-10-15T13:46:49.041Z,95398.97
2022-10-15T13:49:18.858Z,95406.31
2022-10-15T13:51:50.760Z,95367.53
2022-10-15T13:54:22.520Z,95405.41
2022-10-15T13:56:55.916Z,95401.59
2022-10-15T13:59:25.592Z,95406.34
2022-10-15T14:02:00.856Z,95409.41
2022-10-15T14:04:31.719Z,95410.22
2022-10-15T14:07:03.361Z,95402.91
2022-10-15T14:09:34.417Z,95410.75
2022-10-15T14:12:07.952Z,95407.06
2022-10-15T14:14:39.445Z,95335.16
2022-10-15T14:17:10.153Z,95402.66
2022-10-15T14:19:40.326Z,95420.97
2022-10-15T14:22:08.812Z,95412.66
2022-10-15T14:24:38.760Z,95416.47
2022-10-15T14:27:15.902Z,95421.53
2022-10-15T14:29:46.263Z,95414.81
2022-10-15T14:32:26.754Z,95417.38
2022-10-15T14:34:56.359Z,95357.47
2022-10-15T14:37:34.113Z,95417.78
2022-10-15T14:40:17.822Z,95418.34
2022-10-15T14:42:50.401Z,95413.91
2022-10-15T14:45:25.862Z,95419.44
2022-10-15T14:47:57.088Z,95425.88
2022-10-15T14:50:27.491Z,95423.25
2022-10-15T14:52:56.614Z,95417.69
2022-10-15T14:55:33.507Z,95417.06
2022-10-15T14:58:09.499Z,95426.56
2022-10-15T15:00:43.199Z,95423.97
2022-10-15T15:03:18.746Z,95429.03
2022-10-15T15:05:48.456Z,95422.94
2022-10-15T15:08:16.922Z,95429.88
2022-10-15T15:10:46.413Z,95417.50
2022-10-15T15:13:21.324Z,95427.03
2022-10-15T15:15:49.546Z,95441.41
2022-10-15T15:18:17.913Z,95418.25
2022-10-15T15:20:48.435Z,95440.41
2022-10-15T15:23:21.681Z,95441.28
2022-10-15T15:25:50.525Z,95421.78
2022-10-15T15:28:21.702Z,95451.41
2022-10-15T15:30:57.432Z,95454.63
2022-10-15T15:33:26.217Z,95453.50
2022-10-15T15:35:56.708Z,95453.84
2022-10-15T15:38:30.825Z,95454.47
2022-10-15T15:41:04.641Z,95456.31
2022-10-15T15:43:34.275Z,95456.78
2022-10-15T15:46:02.473Z,95458.50
2022-10-15T15:48:30.871Z,95460.06
2022-10-15T15:51:03.172Z,95468.34
2022-10-15T15:53:31.411Z,95467.94
2022-10-15T15:55:59.897Z,95465.09
2022-10-15T15:58:28.084Z,95483.84
2022-10-15T16:00:57.683Z,95489.72
2022-10-15T16:03:25.876Z,95495.88
2022-10-15T16:05:54.046Z,95490.56
2022-10-15T16:08:22.200Z,95517.59
2022-10-15T16:10:50.395Z,95513.66
2022-10-15T16:13:18.647Z,95516.50
2022-10-15T16:15:46.919Z,95512.25
2022-10-15T16:18:16.547Z,95526.28
2022-10-15T16:20:48.521Z,95539.38
2022-10-15T16:23:17.665Z,95539.72
2022-10-15T16:25:45.878Z,95555.91
2022-10-15T16:28:14.066Z,95552.63
2022-10-15T16:30:42.319Z,95564.56
2022-10-15T16:33:10.489Z,95573.34
2022-10-15T16:35:40.187Z,95579.72
2022-10-15T16:38:08.662Z,95578.03
2022-10-15T16:40:36.901Z,95576.00
2022-10-15T16:43:05.110Z,95585.56
2022-10-15T16:45:33.341Z,95595.06
2022-10-15T16:48:01.573Z,95599.22
2022-10-15T16:50:29.817Z,95601.38
2022-10-15T16:52:59.397Z,95590.88
2022-10-15T16:55:28.891Z,95613.25
2022-10-15T16:57:57.528Z,95619.94
2022-10-15T17:00:25.763Z,95612.81
2022-10-15T17:02:55.080Z,95617.88
2022-10-15T17:05:23.310Z,95624.97
2022-10-15T17:07:51.504Z,95630.63
2022-10-15T17:10:25.754Z,95643.91
2022-10-15T17:12:54.298Z,95636.00
2022-10-15T17:15:22.520Z,95637.75
2022-10-15T17:17:50.738Z,95642.91
2022-10-15T17:20:19.008Z,95648.91
2022-10-15T17:22:47.221Z,95650.31
2022-10-15T17:25:15.604Z,95651.34
2022-10-15T17:27:45.355Z,95649.94
2022-10-15T17:30:13.597Z,95650.16
2022-10-15T17:32:42.024Z,95652.84
2022-10-15T17:35:10.331Z,95657.72
2022-10-15T17:37:39.919Z,95657.63
2022-10-15T17:40:09.721Z,95654.94
2022-10-15T17:42:42.610Z,95661.31
2022-10-15T17:45:12.900Z,95668.59
2022-10-15T17:47:41.197Z,95670.00
2022-10-15T17:50:10.137Z,95679.44
2022-10-15T17:52:38.377Z,95666.34
2022-10-15T17:55:07.471Z,95669.84
2022-10-15T17:57:35.809Z,95681.72
2022-10-15T18:00:04.201Z,95681.97
2022-10-15T18:02:33.895Z,95680.50
2022-10-15T18:05:02.263Z,95682.59
2022-10-15T18:07:30.646Z,95687.50
2022-10-15T18:10:01.327Z,95690.53
2022-10-15T18:12:29.579Z,95691.81
2022-10-15T18:14:57.951Z,95693.28
2022-10-15T18:17:26.389Z,95685.22
2022-10-15T18:19:56.446Z,95681.22
2022-10-15T18:22:24.779Z,95702.16
2022-10-15T18:24:53.095Z,95704.56
2022-10-15T18:27:21.442Z,95707.25
2022-10-15T18:29:49.727Z,95713.56
2022-10-15T18:32:18.012Z,95708.22
2022-10-15T18:34:46.261Z,95711.75
2022-10-15T18:37:16.064Z,95628.75
2022-10-15T18:39:44.317Z,95717.88
2022-10-15T18:42:12.649Z,95718.72
2022-10-15T18:44:41.048Z,95714.06
2022-10-15T18:47:09.353Z,95719.41
2022-10-15T18:49:37.684Z,95724.53
2022-10-15T18:52:15.856Z,95706.06
2022-10-15T18:54:55.962Z,95727.31
2022-10-15T18:57:24.164Z,95735.38
2022-10-15T19:02:27.131Z,95735.00
2022-10-15T19:04:55.590Z,95734.34
2022-10-15T19:07:24.003Z,95738.56
2022-10-15T19:09:52.192Z,95740.22
2022-10-15T19:12:21.918Z,95744.72
2022-10-15T19:14:50.246Z,95737.00
2022-10-15T19:17:18.489Z,95738.38
2022-10-15T19:19:50.222Z,95752.91
2022-10-15T19:22:18.664Z,95755.56
2022-10-15T19:24:46.894Z,95756.56
2022-10-15T19:27:15.310Z,95756.09
2022-10-15T19:29:44.966Z,95755.00
2022-10-15T19:32:13.149Z,95753.56
2022-10-15T19:34:41.731Z,95756.44
2022-10-15T19:37:10.077Z,95758.88
2022-10-15T19:39:39.076Z,95756.00
2022-10-15T19:42:07.393Z,95773.72
2022-10-15T19:44:35.687Z,95771.53
2022-10-15T19:47:05.409Z,95776.75
2022-10-15T19:49:34.067Z,95775.25
2022-10-15T19:52:05.060Z,95780.19
2022-10-15T19:54:33.297Z,95783.31
2022-10-15T19:57:01.600Z,95772.94
2022-10-15T19:59:30.139Z,95782.31
2022-10-15T20:01:58.422Z,95774.19
2022-10-15T20:04:28.155Z,95763.94
2022-10-15T20:06:56.407Z,95776.38
2022-10-15T20:09:24.678Z,95774.69
2022-10-15T20:11:52.976Z,95779.06
2022-10-15T20:14:21.412Z,95783.53
2022-10-15T20:16:49.650Z,95789.78
2022-10-15T20:19:17.988Z,95794.31
2022-10-15T20:24:20.704Z,95769.53
2022-10-15T20:26:50.854Z,95785.69
2022-10-15T20:29:19.101Z,95762.94
2022-10-15T20:31:47.436Z,95789.34
2022-10-15T20:34:15.667Z,95795.25
2022-10-15T20:36:43.958Z,95796.84
2022-10-15T20:39:13.883Z,95800.59
2022-10-15T20:41:42.413Z,95799.53
2022-10-15T20:44:12.281Z,95782.06
2022-10-15T20:46:44.895Z,95814.81
2022-10-15T20:49:16.678Z,95817.03
2022-10-15T20:51:46.274Z,95809.66
2022-10-15T20:54:16.772Z,95820.72
2022-10-15T20:56:45.058Z,95816.94
2022-10-15T20:59:13.329Z,95820.66
2022-10-15T21:01:41.710Z,95798.25
2022-10-15T21:04:10.101Z,95812.47
2022-10-15T21:06:38.341Z,95818.06
2022-10-15T21:09:06.930Z,95808.53
2022-10-15T21:11:41.672Z,95824.75
2022-10-15T21:14:10.105Z,95818.31
2022-10-15T21:16:38.579Z,95824.09
2022-10-15T21:19:07.031Z,95823.66
2022-10-15T21:21:35.330Z,95831.03
2022-10-15T21:24:03.581Z,95823.59
2022-10-15T21:26:31.855Z,95819.59
2022-10-15T21:29:01.833Z,95752.13
2022-10-15T21:31:30.201Z,95819.03
2022-10-15T21:33:58.493Z,95825.69
2022-10-15T21:36:28.362Z,95830.22
2022-10-15T21:38:58.485Z,95823.59
2022-10-15T21:41:27.704Z,95830.13
2022-10-15T21:43:56.006Z,95822.16
2022-10-15T21:46:26.564Z,95833.28
2022-10-15T21:48:56.071Z,95829.28
2022-10-15T21:51:26.962Z,95834.84
2022-10-15T21:53:56.232Z,95835.66
2022-10-15T21:56:24.504Z,95814.34
2022-10-15T21:58:54.626Z,95836.09
2022-10-15T22:01:24.153Z,95813.28
2022-10-15T22:03:58.620Z,95829.75
2022-10-15T22:06:26.956Z,95825.50
2022-10-15T22:08:55.932Z,95838.28
2022-10-15T22:14:02.002Z,95838.31
2022-10-15T22:16:30.789Z,95842.31
2022-10-15T22:19:00.431Z,95793.22
2022-10-15T22:21:30.173Z,95846.34
2022-10-15T22:24:00.677Z,95844.75
2022-10-15T22:26:31.300Z,95836.47
2022-10-15T22:29:02.406Z,95855.34
2022-10-15T22:31:31.279Z,95843.88
2022-10-15T22:34:00.957Z,95849.78
2022-10-15T22:36:30.904Z,95853.22
2022-10-15T22:39:01.770Z,95841.03
2022-10-15T22:41:32.039Z,95856.97
2022-10-15T22:44:00.835Z,95849.53
2022-10-15T22:46:29.502Z,95863.34
2022-10-15T22:48:57.784Z,95868.66
2022-10-15T22:51:27.501Z,95867.34
2022-10-15T22:53:56.696Z,95870.28
2022-10-15T22:56:25.965Z,95876.34
2022-10-15T22:58:54.366Z,95883.00
2022-10-15T23:01:25.360Z,95884.84
2022-10-15T23:03:55.733Z,95872.00
2022-10-15T23:06:25.928Z,95889.06
2022-10-15T23:08:56.514Z,95880.31
2022-10-15T23:11:27.129Z,95880.88
2022-10-15T23:13:56.744Z,95888.84
2022-10-15T23:16:26.695Z,95880.81
2022-10-15T23:18:56.434Z,95876.50
2022-10-15T23:21:30.308Z,95881.84
2022-10-15T23:24:00.932Z,95885.03
2022-10-15T23:29:04.360Z,95881.25
2022-10-15T23:31:35.197Z,95887.44
2022-10-15T23:34:04.508Z,95895.75
2022-10-15T23:36:34.477Z,95887.50
2022-10-15T23:39:06.112Z,95895.94
2022-10-15T23:41:34.609Z,95890.19
2022-10-15T23:44:02.803Z,95890.66
2022-10-15T23:46:31.190Z,95891.22
2022-10-15T23:48:59.440Z,95900.47
2022-10-15T23:51:29.493Z,95896.09
2022-10-15T23:53:59.764Z,95897.91
2022-10-15T23:56:30.637Z,95897.28
2022-10-15T23:59:00.472Z,95896.97
